createdAt,value
2023-05-05T00:00:04.675Z,1011.799
2023-05-05T00:00:34.596Z,1011.784
2023-05-05T00:01:04.594Z,1011.785
2023-05-05T00:01:34.596Z,1011.777
2023-05-05T00:02:04.647Z,1011.771
2023-05-05T00:02:34.722Z,1011.764
2023-05-05T00:03:04.696Z,1011.766
2023-05-05T00:03:34.656Z,1011.77
2023-05-05T00:04:04.652Z,1011.768
2023-05-05T00:04:34.587Z,1011.775
2023-05-05T00:05:04.593Z,1011.789
2023-05-05T00:05:34.590Z,1011.804
2023-05-05T00:06:04.595Z,1011.826
2023-05-05T00:06:34.592Z,1011.838
2023-05-05T00:07:04.596Z,1011.85
2023-05-05T00:07:34.589Z,1011.855
2023-05-05T00:08:04.601Z,1011.858
2023-05-05T00:08:34.596Z,1011.86
2023-05-05T00:09:04.601Z,1011.86
2023-05-05T00:09:34.596Z,1011.858
2023-05-05T00:10:04.614Z,1011.868
2023-05-05T00:10:34.591Z,1011.877
2023-05-05T00:11:04.607Z,1011.879
2023-05-05T00:11:34.612Z,1011.877
2023-05-05T00:12:04.609Z,1011.891
2023-05-05T00:12:34.609Z,1011.902
2023-05-05T00:13:04.634Z,1011.896
2023-05-05T00:13:34.601Z,1011.894
2023-05-05T00:14:04.602Z,1011.89
2023-05-05T00:14:34.608Z,1011.879
2023-05-05T00:15:04.595Z,1011.885
2023-05-05T00:15:34.592Z,1011.894
2023-05-05T00:16:04.598Z,1011.888
2023-05-05T00:16:34.608Z,1011.888
2023-05-05T00:17:04.629Z,1011.886
2023-05-05T00:17:34.648Z,1011.889
2023-05-05T00:18:04.671Z,1011.897
2023-05-05T00:18:34.606Z,1011.899
2023-05-05T00:19:04.610Z,1011.898
2023-05-05T00:19:34.615Z,1011.894
2023-05-05T00:20:04.613Z,1011.895
2023-05-05T00:20:34.598Z,1011.898
2023-05-05T00:21:04.605Z,1011.896
2023-05-05T00:21:34.596Z,1011.887
2023-05-05T00:22:04.612Z,1011.885
2023-05-05T00:22:34.592Z,1011.889
2023-05-05T00:23:04.597Z,1011.88
2023-05-05T00:23:34.599Z,1011.886
2023-05-05T00:24:04.600Z,1011.882
2023-05-05T00:24:34.601Z,1011.874
2023-05-05T00:25:04.636Z,1011.875
2023-05-05T00:25:34.602Z,1011.878
2023-05-05T00:26:04.600Z,1011.87
2023-05-05T00:26:34.598Z,1011.862
2023-05-05T00:27:04.596Z,1011.859
2023-05-05T00:27:34.600Z,1011.851
2023-05-05T00:28:04.596Z,1011.849
2023-05-05T00:28:34.610Z,1011.854
2023-05-05T00:29:04.600Z,1011.861
2023-05-05T00:29:34.593Z,1011.859
2023-05-05T00:30:04.599Z,1011.86
2023-05-05T00:30:34.622Z,1011.858
2023-05-05T00:31:04.622Z,1011.858
2023-05-05T00:31:34.699Z,1011.871
2023-05-05T00:32:04.620Z,1011.876
2023-05-05T00:32:34.633Z,1011.88
2023-05-05T00:33:04.679Z,1011.886
2023-05-05T00:33:34.613Z,1011.898
2023-05-05T00:34:04.607Z,1011.895
2023-05-05T00:34:34.602Z,1011.891
2023-05-05T00:35:04.629Z,1011.896
2023-05-05T00:35:34.629Z,1011.899
2023-05-05T00:36:04.603Z,1011.903
2023-05-05T00:36:34.601Z,1011.894
2023-05-05T00:37:04.607Z,1011.894
2023-05-05T00:37:34.603Z,1011.896
2023-05-05T00:38:04.608Z,1011.889
2023-05-05T00:38:34.608Z,1011.89
2023-05-05T00:39:04.611Z,1011.879
2023-05-05T00:39:34.601Z,1011.879
2023-05-05T00:40:04.645Z,1011.873
2023-05-05T00:40:34.627Z,1011.876
2023-05-05T00:41:04.602Z,1011.882
2023-05-05T00:41:34.606Z,1011.883
2023-05-05T00:42:04.609Z,1011.887
2023-05-05T00:42:34.612Z,1011.881
2023-05-05T00:43:04.614Z,1011.868
2023-05-05T00:43:34.614Z,1011.869
2023-05-05T00:44:04.612Z,1011.865
2023-05-05T00:44:34.607Z,1011.858
2023-05-05T00:45:04.607Z,1011.858
2023-05-05T00:45:34.603Z,1011.853
2023-05-05T00:46:04.671Z,1011.857
2023-05-05T00:46:34.635Z,1011.86
2023-05-05T00:47:04.620Z,1011.859
2023-05-05T00:47:34.674Z,1011.858
2023-05-05T00:48:04.728Z,1011.857
2023-05-05T00:48:34.622Z,1011.854
2023-05-05T00:49:04.647Z,1011.859
2023-05-05T00:49:34.701Z,1011.865
2023-05-05T00:50:04.655Z,1011.858
2023-05-05T00:50:34.610Z,1011.847
2023-05-05T00:51:04.613Z,1011.836
2023-05-05T00:51:34.624Z,1011.834
2023-05-05T00:52:04.627Z,1011.847
2023-05-05T00:52:34.618Z,1011.852
2023-05-05T00:53:04.616Z,1011.867
2023-05-05T00:53:34.614Z,1011.862
2023-05-05T00:54:04.610Z,1011.878
2023-05-05T00:54:34.617Z,1011.895
2023-05-05T00:55:04.613Z,1011.907
2023-05-05T00:55:34.610Z,1011.917
2023-05-05T00:56:04.621Z,1011.927
2023-05-05T00:56:34.616Z,1011.932
2023-05-05T00:57:04.628Z,1011.936
2023-05-05T00:57:34.614Z,1011.948
2023-05-05T00:58:04.622Z,1011.957
2023-05-05T00:58:34.614Z,1011.984
2023-05-05T00:59:04.614Z,1011.98
2023-05-05T00:59:34.637Z,1011.98
2023-05-05T01:00:04.625Z,1011.987
2023-05-05T01:00:34.618Z,1011.986
2023-05-05T01:01:04.616Z,1011.997
2023-05-05T01:01:34.628Z,1012.013
2023-05-05T01:02:04.703Z,1012.027
2023-05-05T01:02:34.662Z,1012.038
2023-05-05T01:03:04.680Z,1012.049
2023-05-05T01:03:34.702Z,1012.062
2023-05-05T01:04:04.712Z,1012.071
2023-05-05T01:04:34.627Z,1012.088
2023-05-05T01:05:04.620Z,1012.104
2023-05-05T01:05:34.620Z,1012.11
2023-05-05T01:06:04.621Z,1012.124
2023-05-05T01:06:34.661Z,1012.128
2023-05-05T01:07:04.615Z,1012.139
2023-05-05T01:07:34.612Z,1012.141
2023-05-05T01:08:04.644Z,1012.143
2023-05-05T01:08:34.612Z,1012.149
2023-05-05T01:09:04.614Z,1012.154
2023-05-05T01:09:34.612Z,1012.157
2023-05-05T01:10:18.133Z,1012.153
2023-05-05T01:10:35.615Z,1012.157
2023-05-05T01:11:04.617Z,1012.157
2023-05-05T01:11:34.616Z,1012.165
2023-05-05T01:12:04.620Z,1012.168
2023-05-05T01:12:34.632Z,1012.167
2023-05-05T01:13:04.710Z,1012.173
2023-05-05T01:13:34.621Z,1012.169
2023-05-05T01:14:04.611Z,1012.162
2023-05-05T01:14:34.623Z,1012.16
2023-05-05T01:15:04.617Z,1012.17
2023-05-05T01:15:34.623Z,1012.173
2023-05-05T01:16:04.627Z,1012.186
2023-05-05T01:16:34.673Z,1012.194
2023-05-05T01:17:04.620Z,1012.182
2023-05-05T01:17:34.636Z,1012.189
2023-05-05T01:18:04.633Z,1012.181
2023-05-05T01:18:34.623Z,1012.187
2023-05-05T01:19:04.614Z,1012.2
2023-05-05T01:19:34.622Z,1012.204
2023-05-05T01:20:04.618Z,1012.207
2023-05-05T01:20:34.613Z,1012.205
2023-05-05T01:21:04.618Z,1012.206
2023-05-05T01:21:34.626Z,1012.205
2023-05-05T01:22:04.616Z,1012.209
2023-05-05T01:22:34.625Z,1012.21
2023-05-05T01:23:04.613Z,1012.208
2023-05-05T01:23:34.613Z,1012.204
2023-05-05T01:24:04.625Z,1012.199
2023-05-05T01:24:34.626Z,1012.195
2023-05-05T01:25:04.621Z,1012.195
2023-05-05T01:25:34.628Z,1012.183
2023-05-05T01:26:04.624Z,1012.174
2023-05-05T01:26:34.623Z,1012.172
2023-05-05T01:27:04.639Z,1012.163
2023-05-05T01:27:34.634Z,1012.163
2023-05-05T01:28:04.625Z,1012.164
2023-05-05T01:28:34.627Z,1012.158
2023-05-05T01:29:04.616Z,1012.159
2023-05-05T01:29:34.627Z,1012.161
2023-05-05T01:30:04.639Z,1012.165
2023-05-05T01:30:34.626Z,1012.182
2023-05-05T01:31:04.617Z,1012.181
2023-05-05T01:31:34.669Z,1012.186
2023-05-05T01:32:04.644Z,1012.183
2023-05-05T01:32:34.652Z,1012.184
2023-05-05T01:33:04.622Z,1012.191
2023-05-05T01:33:34.647Z,1012.191
2023-05-05T01:34:04.631Z,1012.206
2023-05-05T01:34:34.643Z,1012.204
2023-05-05T01:35:04.622Z,1012.208
2023-05-05T01:35:34.626Z,1012.21
2023-05-05T01:36:04.623Z,1012.206
2023-05-05T01:36:34.622Z,1012.216
2023-05-05T01:37:04.689Z,1012.224
2023-05-05T01:37:34.621Z,1012.223
2023-05-05T01:38:04.622Z,1012.228
2023-05-05T01:38:34.620Z,1012.235
2023-05-05T01:39:04.620Z,1012.243
2023-05-05T01:39:34.624Z,1012.243
2023-05-05T01:40:04.743Z,1012.248
2023-05-05T01:40:34.619Z,1012.259
2023-05-05T01:41:04.623Z,1012.255
2023-05-05T01:41:34.636Z,1012.258
2023-05-05T01:42:04.619Z,1012.258
2023-05-05T01:42:34.617Z,1012.27
2023-05-05T01:43:04.636Z,1012.281
2023-05-05T01:43:34.631Z,1012.286
2023-05-05T01:44:04.620Z,1012.292
2023-05-05T01:44:34.631Z,1012.292
2023-05-05T01:45:04.621Z,1012.296
2023-05-05T01:45:34.676Z,1012.309
2023-05-05T01:46:04.652Z,1012.308
2023-05-05T01:46:34.623Z,1012.301
2023-05-05T01:47:04.624Z,1012.304
2023-05-05T01:47:34.659Z,1012.312
2023-05-05T01:48:04.672Z,1012.31
2023-05-05T01:48:34.623Z,1012.306
2023-05-05T01:49:04.629Z,1012.309
2023-05-05T01:49:34.627Z,1012.318
2023-05-05T01:50:04.636Z,1012.315
2023-05-05T01:50:34.622Z,1012.323
2023-05-05T01:51:04.625Z,1012.335
2023-05-05T01:51:34.625Z,1012.336
2023-05-05T01:52:04.625Z,1012.348
2023-05-05T01:52:34.625Z,1012.354
2023-05-05T01:53:04.634Z,1012.363
2023-05-05T01:53:34.623Z,1012.363
2023-05-05T01:54:04.623Z,1012.362
2023-05-05T01:54:34.628Z,1012.364
2023-05-05T01:55:04.619Z,1012.372
2023-05-05T01:55:34.620Z,1012.367
2023-05-05T01:56:04.632Z,1012.363
2023-05-05T01:56:34.624Z,1012.366
2023-05-05T01:57:04.623Z,1012.364
2023-05-05T01:57:34.631Z,1012.355
2023-05-05T01:58:04.628Z,1012.355
2023-05-05T01:58:34.627Z,1012.352
2023-05-05T01:59:04.635Z,1012.348
2023-05-05T01:59:34.624Z,1012.355
2023-05-05T02:00:04.702Z,1012.355
2023-05-05T02:00:34.636Z,1012.357
2023-05-05T02:01:04.694Z,1012.356
2023-05-05T02:01:34.699Z,1012.364
2023-05-05T02:02:04.630Z,1012.372
2023-05-05T02:02:34.711Z,1012.377
2023-05-05T02:03:04.739Z,1012.38
2023-05-05T02:03:34.710Z,1012.376
2023-05-05T02:04:04.624Z,1012.386
2023-05-05T02:04:34.633Z,1012.388
2023-05-05T02:05:04.667Z,1012.399
2023-05-05T02:05:34.634Z,1012.401
2023-05-05T02:06:04.627Z,1012.396
2023-05-05T02:06:34.635Z,1012.392
2023-05-05T02:07:04.629Z,1012.403
2023-05-05T02:07:34.642Z,1012.408
2023-05-05T02:08:04.622Z,1012.413
2023-05-05T02:08:34.625Z,1012.416
2023-05-05T02:09:04.626Z,1012.408
2023-05-05T02:09:34.632Z,1012.424
2023-05-05T02:10:04.696Z,1012.437
2023-05-05T02:10:34.629Z,1012.446
2023-05-05T02:11:04.629Z,1012.463
2023-05-05T02:11:34.628Z,1012.464
2023-05-05T02:12:04.629Z,1012.468
2023-05-05T02:12:34.650Z,1012.476
2023-05-05T02:13:04.718Z,1012.471
2023-05-05T02:13:34.676Z,1012.484
2023-05-05T02:14:04.688Z,1012.479
2023-05-05T02:14:34.634Z,1012.477
2023-05-05T02:15:04.642Z,1012.481
2023-05-05T02:15:34.651Z,1012.487
2023-05-05T02:16:04.661Z,1012.487
2023-05-05T02:16:34.633Z,1012.485
2023-05-05T02:17:04.631Z,1012.491
2023-05-05T02:17:34.646Z,1012.509
2023-05-05T02:18:04.677Z,1012.517
2023-05-05T02:18:34.630Z,1012.536
2023-05-05T02:19:04.643Z,1012.545
2023-05-05T02:19:34.647Z,1012.548
2023-05-05T02:20:04.697Z,1012.55
2023-05-05T02:20:34.631Z,1012.55
2023-05-05T02:21:04.626Z,1012.548
2023-05-05T02:21:34.631Z,1012.536
2023-05-05T02:22:04.632Z,1012.526
2023-05-05T02:22:34.637Z,1012.519
2023-05-05T02:23:04.645Z,1012.514
2023-05-05T02:23:34.630Z,1012.507
2023-05-05T02:24:04.632Z,1012.503
2023-05-05T02:24:34.639Z,1012.5
2023-05-05T02:25:04.646Z,1012.487
2023-05-05T02:25:34.641Z,1012.485
2023-05-05T02:26:04.654Z,1012.496
2023-05-05T02:26:34.638Z,1012.492
2023-05-05T02:27:04.643Z,1012.496
2023-05-05T02:27:34.630Z,1012.486
2023-05-05T02:28:04.640Z,1012.503
2023-05-05T02:28:34.646Z,1012.509
2023-05-05T02:29:04.644Z,1012.518
2023-05-05T02:29:34.645Z,1012.519
2023-05-05T02:30:04.649Z,1012.521
2023-05-05T02:30:34.655Z,1012.534
2023-05-05T02:31:04.724Z,1012.53
2023-05-05T02:31:34.669Z,1012.524
2023-05-05T02:32:04.643Z,1012.532
2023-05-05T02:32:34.671Z,1012.523
2023-05-05T02:33:04.720Z,1012.524
2023-05-05T02:33:34.635Z,1012.522
2023-05-05T02:34:04.638Z,1012.52
2023-05-05T02:34:34.640Z,1012.513
2023-05-05T02:35:04.642Z,1012.509
2023-05-05T02:35:34.641Z,1012.503
2023-05-05T02:36:04.649Z,1012.508
2023-05-05T02:36:34.637Z,1012.502
2023-05-05T02:37:04.638Z,1012.504
2023-05-05T02:37:34.642Z,1012.507
2023-05-05T02:38:04.645Z,1012.507
2023-05-05T02:38:34.647Z,1012.517
2023-05-05T02:39:04.685Z,1012.511
2023-05-05T02:39:34.652Z,1012.512
2023-05-05T02:40:04.702Z,1012.52
2023-05-05T02:40:34.645Z,1012.533
2023-05-05T02:41:04.644Z,1012.533
2023-05-05T02:41:34.646Z,1012.531
2023-05-05T02:42:04.645Z,1012.533
2023-05-05T02:42:34.637Z,1012.528
2023-05-05T02:43:04.683Z,1012.529
2023-05-05T02:43:34.641Z,1012.537
2023-05-05T02:44:04.640Z,1012.541
2023-05-05T02:44:34.646Z,1012.545
2023-05-05T02:45:04.638Z,1012.546
2023-05-05T02:45:34.644Z,1012.557
2023-05-05T02:46:04.668Z,1012.562
2023-05-05T02:46:34.735Z,1012.573
2023-05-05T02:47:04.640Z,1012.575
2023-05-05T02:47:34.682Z,1012.578
2023-05-05T02:48:04.677Z,1012.573
2023-05-05T02:48:34.668Z,1012.561
2023-05-05T02:49:04.639Z,1012.573
2023-05-05T02:49:34.647Z,1012.564
2023-05-05T02:50:04.643Z,1012.546
2023-05-05T02:50:34.643Z,1012.536
2023-05-05T02:51:04.641Z,1012.529
2023-05-05T02:51:34.644Z,1012.515
2023-05-05T02:52:04.639Z,1012.504
2023-05-05T02:52:34.650Z,1012.503
2023-05-05T02:53:04.647Z,1012.492
2023-05-05T02:53:34.638Z,1012.488
2023-05-05T02:54:04.648Z,1012.485
2023-05-05T02:54:34.645Z,1012.473
2023-05-05T02:55:04.644Z,1012.473
2023-05-05T02:55:34.654Z,1012.476
2023-05-05T02:56:04.646Z,1012.463
2023-05-05T02:56:34.641Z,1012.467
2023-05-05T02:57:04.650Z,1012.453
2023-05-05T02:57:34.642Z,1012.449
2023-05-05T02:58:04.643Z,1012.453
2023-05-05T02:58:34.648Z,1012.444
2023-05-05T02:59:04.646Z,1012.447
2023-05-05T02:59:34.649Z,1012.451
2023-05-05T03:00:04.718Z,1012.434
2023-05-05T03:00:34.641Z,1012.426
2023-05-05T03:01:04.716Z,1012.42
2023-05-05T03:01:34.688Z,1012.415
2023-05-05T03:02:04.647Z,1012.42
2023-05-05T03:02:34.715Z,1012.433
2023-05-05T03:03:04.750Z,1012.423
2023-05-05T03:03:34.764Z,1012.415
2023-05-05T03:04:04.647Z,1012.408
2023-05-05T03:04:34.649Z,1012.393
2023-05-05T03:05:04.669Z,1012.384
2023-05-05T03:05:34.649Z,1012.381
2023-05-05T03:06:04.651Z,1012.382
2023-05-05T03:06:34.658Z,1012.384
2023-05-05T03:07:04.650Z,1012.385
2023-05-05T03:07:34.653Z,1012.383
2023-05-05T03:08:04.648Z,1012.378
2023-05-05T03:08:34.645Z,1012.378
2023-05-05T03:09:04.659Z,1012.37
2023-05-05T03:09:34.647Z,1012.364
2023-05-05T03:10:04.646Z,1012.362
2023-05-05T03:10:34.645Z,1012.345
2023-05-05T03:11:04.657Z,1012.34
2023-05-05T03:11:34.651Z,1012.344
2023-05-05T03:12:04.659Z,1012.348
2023-05-05T03:12:34.684Z,1012.345
2023-05-05T03:13:04.728Z,1012.332
2023-05-05T03:13:34.640Z,1012.321
2023-05-05T03:14:04.648Z,1012.306
2023-05-05T03:14:34.651Z,1012.307
2023-05-05T03:15:04.664Z,1012.309
2023-05-05T03:15:34.644Z,1012.327
2023-05-05T03:16:04.663Z,1012.315
2023-05-05T03:16:34.704Z,1012.311
2023-05-05T03:17:04.654Z,1012.306
2023-05-05T03:17:34.684Z,1012.295
2023-05-05T03:18:04.706Z,1012.301
2023-05-05T03:18:34.657Z,1012.299
2023-05-05T03:19:04.669Z,1012.31
2023-05-05T03:19:34.644Z,1012.299
2023-05-05T03:20:04.685Z,1012.295
2023-05-05T03:20:34.648Z,1012.292
2023-05-05T03:21:04.647Z,1012.291
2023-05-05T03:21:34.652Z,1012.296
2023-05-05T03:22:04.651Z,1012.299
2023-05-05T03:22:34.653Z,1012.298
2023-05-05T03:23:04.656Z,1012.291
2023-05-05T03:23:34.650Z,1012.289
2023-05-05T03:24:04.653Z,1012.294
2023-05-05T03:24:34.659Z,1012.281
2023-05-05T03:25:04.667Z,1012.267
2023-05-05T03:25:34.651Z,1012.257
2023-05-05T03:26:04.662Z,1012.246
2023-05-05T03:26:34.648Z,1012.241
2023-05-05T03:27:04.647Z,1012.231
2023-05-05T03:27:34.657Z,1012.223
2023-05-05T03:28:04.653Z,1012.222
2023-05-05T03:28:34.656Z,1012.218
2023-05-05T03:29:04.656Z,1012.218
2023-05-05T03:29:34.663Z,1012.216
2023-05-05T03:30:04.678Z,1012.216
2023-05-05T03:30:34.649Z,1012.22
2023-05-05T03:31:04.652Z,1012.237
2023-05-05T03:31:34.677Z,1012.232
2023-05-05T03:32:04.791Z,1012.24
2023-05-05T03:32:34.678Z,1012.25
2023-05-05T03:33:04.717Z,1012.257
2023-05-05T03:33:34.650Z,1012.263
2023-05-05T03:34:04.647Z,1012.27
2023-05-05T03:34:34.650Z,1012.273
2023-05-05T03:35:04.653Z,1012.265
2023-05-05T03:35:34.646Z,1012.27
2023-05-05T03:36:04.682Z,1012.271
2023-05-05T03:36:34.655Z,1012.273
2023-05-05T03:37:04.660Z,1012.254
2023-05-05T03:37:34.661Z,1012.231
2023-05-05T03:38:04.669Z,1012.204
2023-05-05T03:38:34.731Z,1012.162
2023-05-05T03:39:04.656Z,1012.137
2023-05-05T03:39:34.649Z,1012.101
2023-05-05T03:40:04.664Z,1012.078
2023-05-05T03:40:43.607Z,1012.045
2023-05-05T03:41:05.751Z,1012.012
2023-05-05T03:41:34.649Z,1012.006
2023-05-05T03:42:04.755Z,1012.013
2023-05-05T03:42:34.654Z,1012.012
2023-05-05T03:43:04.657Z,1012.007
2023-05-05T03:43:34.667Z,1011.99
2023-05-05T03:44:04.651Z,1012.003
2023-05-05T03:44:34.659Z,1012.04
2023-05-05T03:45:04.649Z,1012.047
2023-05-05T03:45:34.736Z,1012.071
2023-05-05T03:46:04.732Z,1012.069
2023-05-05T03:46:34.653Z,1012.062
2023-05-05T03:47:04.662Z,1012.058
2023-05-05T03:47:34.673Z,1012.042
2023-05-05T03:48:04.725Z,1012.059
2023-05-05T03:48:34.654Z,1012.07
2023-05-05T03:49:04.666Z,1012.079
2023-05-05T03:49:34.653Z,1012.086
2023-05-05T03:50:04.679Z,1012.085
2023-05-05T03:50:34.669Z,1012.099
2023-05-05T03:51:04.650Z,1012.103
2023-05-05T03:51:34.664Z,1012.111
2023-05-05T03:52:04.660Z,1012.102
2023-05-05T03:52:34.653Z,1012.087
2023-05-05T03:53:04.667Z,1012.074
2023-05-05T03:53:34.665Z,1012.087
2023-05-05T03:54:04.660Z,1012.106
2023-05-05T03:54:34.659Z,1012.134
2023-05-05T03:55:04.655Z,1012.15
2023-05-05T03:55:34.667Z,1012.177
2023-05-05T03:56:04.659Z,1012.207
2023-05-05T03:56:34.670Z,1012.222
2023-05-05T03:57:04.662Z,1012.251
2023-05-05T03:57:34.668Z,1012.252
2023-05-05T03:58:04.663Z,1012.26
2023-05-05T03:58:34.674Z,1012.288
2023-05-05T03:59:04.658Z,1012.309
2023-05-05T03:59:34.663Z,1012.304
2023-05-05T04:00:04.667Z,1012.284
2023-05-05T04:00:34.671Z,1012.267
2023-05-05T04:01:04.660Z,1012.248
2023-05-05T04:01:34.665Z,1012.251
2023-05-05T04:02:04.688Z,1012.244
2023-05-05T04:02:34.740Z,1012.238
2023-05-05T04:03:04.925Z,1012.244
2023-05-05T04:03:34.736Z,1012.23
2023-05-05T04:04:04.704Z,1012.23
2023-05-05T04:04:34.788Z,1012.246
2023-05-05T04:05:04.667Z,1012.257
2023-05-05T04:05:34.731Z,1012.272
2023-05-05T04:06:04.666Z,1012.272
2023-05-05T04:06:34.662Z,1012.265
2023-05-05T04:07:04.668Z,1012.271
2023-05-05T04:07:34.664Z,1012.272
2023-05-05T04:08:04.674Z,1012.272
2023-05-05T04:08:34.669Z,1012.26
2023-05-05T04:09:04.670Z,1012.252
2023-05-05T04:09:34.668Z,1012.234
2023-05-05T04:10:04.756Z,1012.224
2023-05-05T04:10:34.674Z,1012.208
2023-05-05T04:11:04.672Z,1012.207
2023-05-05T04:11:34.671Z,1012.208
2023-05-05T04:12:04.677Z,1012.2
2023-05-05T04:12:34.688Z,1012.2
2023-05-05T04:13:04.765Z,1012.214
2023-05-05T04:13:34.672Z,1012.233
2023-05-05T04:14:04.669Z,1012.246
2023-05-05T04:14:34.670Z,1012.262
2023-05-05T04:15:04.701Z,1012.284
2023-05-05T04:15:34.747Z,1012.297
2023-05-05T04:16:04.718Z,1012.308
2023-05-05T04:16:34.686Z,1012.299
2023-05-05T04:17:04.670Z,1012.301
2023-05-05T04:17:34.685Z,1012.3
2023-05-05T04:18:04.718Z,1012.33
2023-05-05T04:18:34.701Z,1012.347
2023-05-05T04:19:04.671Z,1012.36
2023-05-05T04:19:34.724Z,1012.365
2023-05-05T04:20:04.732Z,1012.378
2023-05-05T04:20:34.674Z,1012.377
2023-05-05T04:21:04.692Z,1012.39
2023-05-05T04:21:34.678Z,1012.375
2023-05-05T04:22:04.672Z,1012.365
2023-05-05T04:22:34.680Z,1012.356
2023-05-05T04:23:04.687Z,1012.341
2023-05-05T04:23:34.689Z,1012.328
2023-05-05T04:24:04.684Z,1012.317
2023-05-05T04:24:34.669Z,1012.289
2023-05-05T04:25:04.679Z,1012.273
2023-05-05T04:25:34.671Z,1012.255
2023-05-05T04:26:04.674Z,1012.229
2023-05-05T04:26:34.695Z,1012.202
2023-05-05T04:27:04.670Z,1012.185
2023-05-05T04:27:34.713Z,1012.175
2023-05-05T04:28:04.680Z,1012.169
2023-05-05T04:28:34.696Z,1012.158
2023-05-05T04:29:04.676Z,1012.163
2023-05-05T04:29:34.676Z,1012.142
2023-05-05T04:30:04.683Z,1012.134
2023-05-05T04:30:34.677Z,1012.123
2023-05-05T04:31:04.695Z,1012.107
2023-05-05T04:31:34.709Z,1012.111
2023-05-05T04:32:04.676Z,1012.133
2023-05-05T04:32:34.729Z,1012.161
2023-05-05T04:33:04.677Z,1012.179
2023-05-05T04:33:34.678Z,1012.193
2023-05-05T04:34:04.673Z,1012.179
2023-05-05T04:34:34.674Z,1012.164
2023-05-05T04:35:04.679Z,1012.145
2023-05-05T04:35:34.673Z,1012.12
2023-05-05T04:36:04.675Z,1012.124
2023-05-05T04:36:34.670Z,1012.139
2023-05-05T04:37:04.679Z,1012.13
2023-05-05T04:37:34.676Z,1012.127
2023-05-05T04:38:04.694Z,1012.13
2023-05-05T04:38:34.707Z,1012.143
2023-05-05T04:39:04.712Z,1012.153
2023-05-05T04:39:34.677Z,1012.16
2023-05-05T04:40:04.682Z,1012.172
2023-05-05T04:40:34.696Z,1012.18
2023-05-05T04:41:04.683Z,1012.181
2023-05-05T04:41:34.684Z,1012.186
2023-05-05T04:42:04.704Z,1012.191
2023-05-05T04:42:34.684Z,1012.183
2023-05-05T04:43:04.679Z,1012.192
2023-05-05T04:43:34.693Z,1012.204
2023-05-05T04:44:04.690Z,1012.21
2023-05-05T04:44:34.675Z,1012.216
2023-05-05T04:45:04.679Z,1012.227
2023-05-05T04:45:34.687Z,1012.247
2023-05-05T04:46:04.710Z,1012.26
2023-05-05T04:46:34.788Z,1012.259
2023-05-05T04:47:04.684Z,1012.236
2023-05-05T04:47:34.701Z,1012.215
2023-05-05T04:48:04.702Z,1012.203
2023-05-05T04:48:34.697Z,1012.188
2023-05-05T04:49:04.692Z,1012.177
2023-05-05T04:49:34.689Z,1012.169
2023-05-05T04:50:04.683Z,1012.167
2023-05-05T04:50:34.681Z,1012.16
2023-05-05T04:51:04.693Z,1012.153
2023-05-05T04:51:34.688Z,1012.147
2023-05-05T04:52:04.684Z,1012.152
2023-05-05T04:52:34.679Z,1012.143
2023-05-05T04:53:04.682Z,1012.146
2023-05-05T04:53:34.684Z,1012.157
2023-05-05T04:54:04.682Z,1012.17
2023-05-05T04:54:34.683Z,1012.171
2023-05-05T04:55:04.702Z,1012.181
2023-05-05T04:55:34.682Z,1012.192
2023-05-05T04:56:04.682Z,1012.192
2023-05-05T04:56:34.687Z,1012.2
2023-05-05T04:57:04.689Z,1012.199
2023-05-05T04:57:34.687Z,1012.2
2023-05-05T04:58:04.681Z,1012.21
2023-05-05T04:58:34.693Z,1012.222
2023-05-05T04:59:04.692Z,1012.223
2023-05-05T04:59:34.684Z,1012.22
2023-05-05T05:00:04.691Z,1012.208
2023-05-05T05:00:34.688Z,1012.207
2023-05-05T05:01:04.682Z,1012.204
2023-05-05T05:01:36.918Z,1012.198
2023-05-05T05:02:05.640Z,1012.199
2023-05-05T05:02:34.734Z,1012.204
2023-05-05T05:03:04.799Z,1012.21
2023-05-05T05:03:34.745Z,1012.222
2023-05-05T05:04:04.913Z,1012.244
2023-05-05T05:04:34.680Z,1012.264
2023-05-05T05:05:04.685Z,1012.263
2023-05-05T05:05:34.687Z,1012.262
2023-05-05T05:06:04.684Z,1012.255
2023-05-05T05:06:34.679Z,1012.253
2023-05-05T05:07:04.696Z,1012.246
2023-05-05T05:07:34.684Z,1012.24
2023-05-05T05:08:04.686Z,1012.248
2023-05-05T05:08:34.682Z,1012.256
2023-05-05T05:09:04.690Z,1012.249
2023-05-05T05:09:34.697Z,1012.248
2023-05-05T05:10:04.700Z,1012.256
2023-05-05T05:10:34.691Z,1012.249
2023-05-05T05:11:04.690Z,1012.247
2023-05-05T05:11:34.695Z,1012.234
2023-05-05T05:12:04.686Z,1012.24
2023-05-05T05:12:34.729Z,1012.239
2023-05-05T05:13:04.772Z,1012.229
2023-05-05T05:13:34.690Z,1012.213
2023-05-05T05:14:04.684Z,1012.183
2023-05-05T05:14:34.690Z,1012.159
2023-05-05T05:15:04.686Z,1012.145
2023-05-05T05:15:34.688Z,1012.14
2023-05-05T05:16:04.710Z,1012.129
2023-05-05T05:16:34.697Z,1012.13
2023-05-05T05:17:04.693Z,1012.124
2023-05-05T05:17:34.727Z,1012.112
2023-05-05T05:18:04.738Z,1012.102
2023-05-05T05:18:34.698Z,1012.093
2023-05-05T05:19:04.688Z,1012.1
2023-05-05T05:19:34.689Z,1012.102
2023-05-05T05:20:04.700Z,1012.106
2023-05-05T05:20:34.710Z,1012.095
2023-05-05T05:21:04.690Z,1012.092
2023-05-05T05:21:34.692Z,1012.083
2023-05-05T05:22:04.716Z,1012.079
2023-05-05T05:22:34.691Z,1012.065
2023-05-05T05:23:04.698Z,1012.07
2023-05-05T05:23:34.704Z,1012.048
2023-05-05T05:24:04.692Z,1012.039
2023-05-05T05:24:34.701Z,1012.032
2023-05-05T05:25:04.693Z,1012.033
2023-05-05T05:25:34.718Z,1012.024
2023-05-05T05:26:04.685Z,1012.017
2023-05-05T05:26:34.710Z,1012.015
2023-05-05T05:27:04.692Z,1012.006
2023-05-05T05:27:34.691Z,1011.983
2023-05-05T05:28:35.809Z,1011.98
2023-05-05T05:29:04.691Z,1011.969
2023-05-05T05:29:34.692Z,1011.952
2023-05-05T05:30:04.699Z,1011.938
2023-05-05T05:30:34.738Z,1011.914
2023-05-05T05:31:04.698Z,1011.899
2023-05-05T05:31:34.766Z,1011.887
2023-05-05T05:32:04.751Z,1011.892
2023-05-05T05:32:34.808Z,1011.899
2023-05-05T05:33:04.805Z,1011.898
2023-05-05T05:33:34.700Z,1011.906
2023-05-05T05:34:04.701Z,1011.91
2023-05-05T05:34:34.705Z,1011.91
2023-05-05T05:35:04.696Z,1011.935
2023-05-05T05:35:34.707Z,1011.943
2023-05-05T05:36:04.694Z,1011.975
2023-05-05T05:36:34.703Z,1012.01
2023-05-05T05:37:04.693Z,1012.029
2023-05-05T05:37:34.719Z,1012.043
2023-05-05T05:38:04.695Z,1012.04
2023-05-05T05:38:34.695Z,1012.033
2023-05-05T05:39:04.693Z,1012.037
2023-05-05T05:39:34.707Z,1012.02
2023-05-05T05:40:04.697Z,1012.009
2023-05-05T05:40:34.691Z,1011.998
2023-05-05T05:41:04.699Z,1011.977
2023-05-05T05:41:34.705Z,1011.982
2023-05-05T05:42:04.718Z,1011.986
2023-05-05T05:42:34.697Z,1011.992
2023-05-05T05:43:04.699Z,1011.988
2023-05-05T05:43:34.694Z,1011.978
2023-05-05T05:44:04.699Z,1011.955
2023-05-05T05:44:34.705Z,1011.952
2023-05-05T05:45:04.697Z,1011.952
2023-05-05T05:45:34.696Z,1011.964
2023-05-05T05:46:06.358Z,1011.97
2023-05-05T05:46:35.745Z,1011.983
2023-05-05T05:47:04.704Z,1011.994
2023-05-05T05:47:34.769Z,1012.001
2023-05-05T05:48:04.771Z,1012.011
2023-05-05T05:48:34.705Z,1012.02
2023-05-05T05:49:04.709Z,1012.03
2023-05-05T05:49:34.755Z,1012.047
2023-05-05T05:50:04.708Z,1012.061
2023-05-05T05:50:34.714Z,1012.046
2023-05-05T05:51:04.705Z,1012.024
2023-05-05T05:51:34.699Z,1012.009
2023-05-05T05:52:04.698Z,1011.99
2023-05-05T05:52:34.704Z,1011.998
2023-05-05T05:53:04.700Z,1012.014
2023-05-05T05:53:34.704Z,1012.034
2023-05-05T05:54:04.715Z,1012.035